Time;durP1;ratioP1;P1;durP2;ratioP2;P2;SDS_P1;SDS_P2;PMS_P1;PMS_P2;Temp;Humidity;BMP_temperature;BMP_pressure;BME280_temperature;BME280_humidity;BME280_pressure;Samples;Min_cycle;Max_cycle;Signal;HPM_P1;HPM_P2
2022/03/17 00:01:52;;;;;;;48.90;23.53;;;;;;;-145.69;100.00;72552.69;5072159;28;20198;-76
2022/03/17 00:04:22;;;;;;;45.10;21.00;;;;;;;-145.69;100.00;72552.69;5074136;28;20649;-76
2022/03/17 00:06:48;;;;;;;43.83;22.40;;;;;;;-145.69;100.00;72558.66;5073901;28;20205;-77
2022/03/17 00:09:17;;;;;;;58.23;22.57;;;;;;;-145.69;100.00;72560.66;5073759;28;20201;-77
2022/03/17 00:11:43;;;;;;;45.07;21.30;;;;;;;-145.69;100.00;72540.75;5074232;28;20568;-76
2022/03/17 00:14:11;;;;;;;42.47;22.53;;;;;;;-145.69;100.00;72550.72;5073947;28;20230;-76
2022/03/17 00:16:38;;;;;;;47.10;23.17;;;;;;;-145.69;100.00;72552.69;5073813;28;20203;-76
2022/03/17 00:19:08;;;;;;;45.03;22.07;;;;;;;-145.69;100.00;72552.69;5074097;28;20214;-76
2022/03/17 00:21:38;;;;;;;45.63;22.30;;;;;;;-145.69;100.00;72572.59;5069871;28;20198;-76
2022/03/17 00:24:09;;;;;;;40.90;20.50;;;;;;;-145.69;100.00;72584.56;5073155;28;20211;-76
2022/03/17 00:26:37;;;;;;;46.80;22.27;;;;;;;-145.69;100.00;72604.44;5073802;28;20565;-76
2022/03/17 00:29:07;;;;;;;46.67;21.47;;;;;;;-145.69;100.00;72620.38;5073526;28;20658;-76
2022/03/17 00:31:37;;;;;;;44.13;21.80;;;;;;;-145.69;100.00;72632.31;5073628;28;20750;-77
2022/03/17 00:34:07;;;;;;;50.07;20.67;;;;;;;-145.69;100.00;72638.28;5073861;28;20245;-76
2022/03/17 00:36:34;;;;;;;44.83;20.60;;;;;;;-145.69;100.00;72640.28;5073211;28;20203;-76
2022/03/17 00:39:01;;;;;;;46.53;22.27;;;;;;;-145.69;100.00;72646.25;5073654;28;20213;-76
2022/03/17 00:41:27;;;;;;;44.33;21.43;;;;;;;-145.69;100.00;72654.22;5073506;28;20210;-75
2022/03/17 00:43:54;;;;;;;52.57;25.03;;;;;;;-145.69;100.00;72624.34;5073617;28;20203;-75
2022/03/17 00:46:21;;;;;;;56.20;25.90;;;;;;;-145.69;100.00;72608.44;5073110;28;20606;-75
2022/03/17 00:48:48;;;;;;;54.07;25.17;;;;;;;-145.69;100.00;72608.44;5073326;28;20210;-76
2022/03/17 00:51:15;;;;;;;53.20;25.60;;;;;;;-145.69;100.00;72616.41;5073222;28;20235;-76
2022/03/17 00:53:42;;;;;;;48.67;24.60;;;;;;;-145.69;100.00;72616.41;5073530;28;20245;-76
2022/03/17 00:56:09;;;;;;;50.70;24.70;;;;;;;-145.69;100.00;72634.31;5072807;28;20256;-75
2022/03/17 00:58:35;;;;;;;56.47;25.63;;;;;;;-145.69;100.00;72636.31;5073373;28;20198;-75
2022/03/17 01:01:03;;;;;;;54.03;24.30;;;;;;;-145.69;100.00;72644.25;5073310;28;20206;-76
2022/03/17 01:03:29;;;;;;;53.77;25.57;;;;;;;-145.69;100.00;72642.28;5073235;28;20234;-76
2022/03/17 01:05:59;;;;;;;54.27;24.23;;;;;;;-145.69;100.00;72648.25;5072853;28;20664;-75
2022/03/17 01:08:26;;;;;;;56.67;26.70;;;;;;;-145.69;100.00;72648.25;5073191;28;20209;-76
2022/03/17 01:10:52;;;;;;;52.53;24.87;;;;;;;-145.69;100.00;72648.25;5073012;28;20226;-75
2022/03/17 01:13:19;;;;;;;58.17;27.50;;;;;;;-145.69;100.00;72644.25;5071821;28;20210;-75
2022/03/17 01:15:45;;;;;;;58.07;25.87;;;;;;;-145.69;100.00;72644.25;5072846;28;20199;-75
2022/03/17 01:18:12;;;;;;;54.80;25.67;;;;;;;-145.69;100.00;72636.31;5072867;28;20199;-75
2022/03/17 01:20:38;;;;;;;55.80;25.13;;;;;;;-145.69;100.00;72636.31;5073220;28;20198;-75
2022/03/17 01:23:06;;;;;;;55.13;25.30;;;;;;;-145.69;100.00;72644.25;5073071;28;20198;-76
2022/03/17 01:25:33;;;;;;;53.13;24.70;;;;;;;-145.69;100.00;72656.22;5072844;28;20285;-76
2022/03/17 01:27:59;;;;;;;47.90;23.57;;;;;;;-145.69;100.00;72664.16;5072927;28;20553;-76
2022/03/17 01:30:26;;;;;;;54.20;23.87;;;;;;;-145.69;100.00;72678.09;5072801;28;20241;-76
2022/03/17 01:32:52;;;;;;;54.93;24.57;;;;;;;-145.69;100.00;72692.03;5072666;28;20206;-76
2022/03/17 01:35:19;;;;;;;46.40;22.60;;;;;;;-145.69;100.00;72703.97;5072425;28;20199;-76
2022/03/17 01:37:46;;;;;;;48.57;23.03;;;;;;;-145.69;100.00;72705.97;5072805;28;20256;-76
2022/03/17 01:40:14;;;;;;;49.80;24.60;;;;;;;-145.69;100.00;72711.94;5072887;28;20202;-76
2022/03/17 01:42:40;;;;;;;48.63;23.53;;;;;;;-145.69;100.00;72717.91;5072846;28;20194;-76
2022/03/17 01:45:09;;;;;;;48.07;23.33;;;;;;;-145.69;100.00;72717.91;5072400;28;20277;-76
2022/03/17 01:47:36;;;;;;;50.00;22.70;;;;;;;-145.69;100.00;72721.88;5072711;28;20191;-76
2022/03/17 01:50:06;;;;;;;49.67;24.50;;;;;;;-145.69;100.00;72717.91;5072522;28;20344;-76
2022/03/17 01:52:33;;;;;;;58.27;27.30;;;;;;;-145.69;100.00;72700.00;5072849;28;20286;-76
2022/03/17 01:55:00;;;;;;;58.40;26.37;;;;;;;-145.69;100.00;72694.03;5072262;28;20650;-76
2022/03/17 01:57:28;;;;;;;59.30;27.47;;;;;;;-145.69;100.00;72698.00;5072636;28;20202;-76
2022/03/17 01:59:54;;;;;;;57.93;26.80;;;;;;;-145.69;100.00;72696.00;5072668;28;20195;-76
2022/03/17 02:02:21;;;;;;;54.27;26.37;;;;;;;-145.69;100.00;72703.97;5072642;28;20207;-76
2022/03/17 02:04:48;;;;;;;64.23;28.13;;;;;;;-145.69;100.00;72690.03;5072826;28;20285;-76
2022/03/17 02:07:19;;;;;;;60.33;27.60;;;;;;;-145.69;100.00;72688.06;5072881;28;20294;-76
2022/03/17 02:09:50;;;;;;;56.53;26.17;;;;;;;-145.69;100.00;72686.06;5072602;28;20297;-76
2022/03/17 02:15:05;;;;;;;58.77;26.90;;;;;;;-145.69;100.00;72688.06;5072491;28;20234;-77
2022/03/17 02:17:39;;;;;;;58.43;27.57;;;;;;;-145.69;100.00;72674.13;5072659;28;20213;-76
2022/03/17 02:20:09;;;;;;;61.23;27.57;;;;;;;-145.69;100.00;72680.09;5072644;28;20195;-76
2022/03/17 02:22:40;;;;;;;64.23;27.50;;;;;;;-145.69;100.00;72680.09;5072119;28;20562;-75
2022/03/17 02:27:53;;;;;;;55.97;25.53;;;;;;;-145.69;100.00;72682.09;5070645;28;20289;-76
2022/03/17 02:30:22;;;;;;;59.80;27.27;;;;;;;-145.69;100.00;72690.03;5072215;28;20264;-76
2022/03/17 02:32:49;;;;;;;60.20;28.00;;;;;;;-145.69;100.00;72703.97;5071950;28;20701;-76
2022/03/17 02:35:20;;;;;;;54.70;26.37;;;;;;;-145.69;100.00;72707.97;5072211;28;20692;-76
2022/03/17 02:37:48;;;;;;;48.70;23.50;;;;;;;-145.69;100.00;72719.91;5072418;28;20195;-76
2022/03/17 02:40:19;;;;;;;50.67;24.03;;;;;;;-145.69;100.00;72723.88;5072496;28;20207;-76
2022/03/17 02:42:45;;;;;;;54.20;25.70;;;;;;;-145.69;100.00;72725.88;5071810;28;20206;-76
2022/03/17 02:45:14;;;;;;;51.73;24.77;;;;;;;-145.69;100.00;72725.88;5071899;28;20206;-76
2022/03/17 02:47:44;;;;;;;52.17;24.60;;;;;;;-145.69;100.00;72725.88;5075626;28;20205;-76
2022/03/17 02:50:11;;;;;;;51.03;24.67;;;;;;;-145.69;100.00;72729.84;5076104;28;20206;-76
2022/03/17 02:52:41;;;;;;;52.40;25.50;;;;;;;-145.69;100.00;72727.88;5075513;28;20301;-77
2022/03/17 02:55:10;;;;;;;56.37;25.70;;;;;;;-145.69;100.00;72723.88;5075594;28;20199;-77
2022/03/17 02:57:46;;;;;;;53.77;24.77;;;;;;;-145.69;100.00;72725.88;5075725;28;20203;-76
2022/03/17 03:00:14;;;;;;;51.80;25.97;;;;;;;-145.69;100.00;72731.84;5075575;28;20198;-76
2022/03/17 03:02:41;;;;;;;57.37;26.23;;;;;;;-145.69;100.00;72729.84;5075281;28;20270;-76
2022/03/17 03:05:09;;;;;;;56.87;26.87;;;;;;;-145.69;100.00;72731.84;5075472;28;20209;-76
2022/03/17 03:07:36;;;;;;;56.90;26.57;;;;;;;-145.69;100.00;72729.84;5075575;28;20573;-76
2022/03/17 03:10:04;;;;;;;61.77;27.60;;;;;;;-145.69;100.00;72731.84;5075497;28;20229;-76
2022/03/17 03:12:31;;;;;;;54.67;26.10;;;;;;;-145.69;100.00;72731.84;5075054;28;20198;-76
2022/03/17 03:14:58;;;;;;;53.00;25.40;;;;;;;-145.69;100.00;72741.78;5074838;28;20230;-76
2022/03/17 03:17:25;;;;;;;55.83;26.47;;;;;;;-145.69;100.00;72739.81;5075500;28;20210;-76
2022/03/17 03:19:52;;;;;;;58.30;26.67;;;;;;;-145.69;100.00;72743.78;5075415;28;20205;-76
2022/03/17 03:22:22;;;;;;;56.60;26.13;;;;;;;-145.69;100.00;72745.78;5075406;28;20211;-76
2022/03/17 03:24:48;;;;;;;56.33;26.93;;;;;;;-145.69;100.00;72743.78;5074763;28;20206;-76
2022/03/17 03:27:17;;;;;;;63.23;26.43;;;;;;;-145.69;100.00;72743.78;5074873;28;20198;-76
2022/03/17 03:29:44;;;;;;;71.07;30.13;;;;;;;-145.69;100.00;72749.75;5075151;28;20202;-76
2022/03/17 03:32:12;;;;;;;62.13;28.67;;;;;;;-145.69;100.00;72745.78;5074973;28;20256;-75
2022/03/17 03:34:42;;;;;;;59.17;27.90;;;;;;;-145.69;100.00;72751.75;5074739;28;20274;-76
2022/03/17 03:37:23;;;;;;;64.50;28.63;;;;;;;-145.69;100.00;72743.78;5075019;28;20249;-76
2022/03/17 03:39:51;;;;;;;61.43;28.03;;;;;;;-145.69;100.00;72753.75;5074694;28;20198;-76
2022/03/17 03:42:18;;;;;;;62.67;27.90;;;;;;;-145.69;100.00;72755.72;5074641;28;20207;-76
2022/03/17 03:44:46;;;;;;;62.43;29.07;;;;;;;-145.69;100.00;72757.72;5074464;28;20191;-76
2022/03/17 03:47:15;;;;;;;57.43;27.57;;;;;;;-145.69;100.00;72763.69;5074684;28;20195;-76
2022/03/17 03:49:44;;;;;;;62.93;28.10;;;;;;;-145.69;100.00;72773.66;5074424;28;20653;-76
2022/03/17 03:52:13;;;;;;;61.43;29.20;;;;;;;-145.69;100.00;72763.69;5074301;28;20230;-76
2022/03/17 03:54:40;;;;;;;63.77;28.90;;;;;;;-145.69;100.00;72775.63;5074118;28;20260;-76
2022/03/17 03:57:07;;;;;;;59.53;28.87;;;;;;;-145.69;100.00;72771.66;5073992;28;20685;-76
2022/03/17 03:59:35;;;;;;;59.40;27.87;;;;;;;-145.69;100.00;72779.63;5074624;28;20203;-75
2022/03/17 04:02:03;;;;;;;53.77;26.00;;;;;;;-145.69;100.00;72775.63;5074321;28;20202;-76
2022/03/17 04:04:36;;;;;;;54.83;26.23;;;;;;;-145.69;100.00;72771.66;5073998;28;20206;-75
2022/03/17 04:07:05;;;;;;;63.40;27.50;;;;;;;-145.69;100.00;72771.66;5074106;28;20210;-76
2022/03/17 04:09:34;;;;;;;59.27;26.37;;;;;;;-145.69;100.00;72771.66;5073904;28;20203;-76
2022/03/17 04:12:01;;;;;;;56.60;25.67;;;;;;;-145.69;100.00;72777.63;5074222;28;20226;-75
2022/03/17 04:14:27;;;;;;;71.77;31.47;;;;;;;-145.69;100.00;72769.66;5073771;28;20222;-75
2022/03/17 04:16:54;;;;;;;67.20;31.43;;;;;;;-145.69;100.00;72763.69;5074020;28;20207;-75
2022/03/17 04:19:20;;;;;;;65.77;28.87;;;;;;;-145.69;100.00;72765.69;5073856;28;20561;-75
2022/03/17 04:21:50;;;;;;;74.23;31.93;;;;;;;-145.69;100.00;72763.69;5074024;28;20665;-76
2022/03/17 04:24:18;;;;;;;65.50;29.40;;;;;;;-145.69;100.00;72765.69;5073909;28;20206;-75
2022/03/17 04:26:45;;;;;;;62.97;29.37;;;;;;;-145.69;100.00;72761.69;5073922;28;20199;-76
2022/03/17 04:29:12;;;;;;;62.33;28.27;;;;;;;-145.69;100.00;72771.66;5063920;28;20198;-75
2022/03/17 04:31:40;;;;;;;62.90;28.97;;;;;;;-145.69;100.00;72765.69;5053639;28;20234;-75
2022/03/17 04:34:09;;;;;;;60.80;28.57;;;;;;;-145.69;100.00;72767.69;5063500;28;20195;-76
2022/03/17 04:36:36;;;;;;;60.80;26.97;;;;;;;-145.69;100.00;72763.69;5073779;28;20209;-75
2022/03/17 04:39:06;;;;;;;64.97;28.93;;;;;;;-145.69;100.00;72759.72;5073714;28;20206;-75
2022/03/17 04:41:40;;;;;;;73.83;31.13;;;;;;;-145.69;100.00;72755.72;5073533;28;20268;-76
2022/03/17 04:44:12;;;;;;;73.27;33.03;;;;;;;-145.69;100.00;72757.72;5073381;28;20199;-75
2022/03/17 04:46:40;;;;;;;73.20;32.87;;;;;;;-145.69;100.00;72751.75;5073536;28;20218;-75
2022/03/17 04:49:08;;;;;;;68.77;30.53;;;;;;;-145.69;100.00;72747.78;5073560;28;20206;-75
2022/03/17 04:51:35;;;;;;;63.83;30.43;;;;;;;-145.69;100.00;72753.75;5073308;28;20230;-75
2022/03/17 04:54:02;;;;;;;65.63;29.57;;;;;;;-145.69;100.00;72753.75;5073086;28;20654;-76
2022/03/17 04:56:33;;;;;;;67.67;30.37;;;;;;;-145.69;100.00;72761.69;5073350;28;20202;-75
2022/03/17 04:58:59;;;;;;;68.27;31.27;;;;;;;-145.69;100.00;72763.69;5073141;28;20199;-75
2022/03/17 05:01:26;;;;;;;69.93;31.77;;;;;;;-145.69;100.00;72771.66;5073389;28;20214;-75
2022/03/17 05:03:53;;;;;;;64.73;29.30;;;;;;;-145.69;100.00;72775.63;5073127;28;20191;-75
2022/03/17 05:06:20;;;;;;;57.70;26.70;;;;;;;-145.69;100.00;72773.66;5073292;28;20227;-76
2022/03/17 05:08:48;;;;;;;59.13;27.77;;;;;;;-145.69;100.00;72771.66;5072534;28;20206;-75
2022/03/17 05:11:18;;;;;;;65.60;28.87;;;;;;;-145.69;100.00;72759.72;5073005;28;20585;-75
2022/03/17 05:13:48;;;;;;;64.83;30.70;;;;;;;-145.69;100.00;72761.69;5072370;28;20234;-76
2022/03/17 05:16:16;;;;;;;73.60;30.87;;;;;;;-145.69;100.00;72763.69;5073071;28;20565;-75
2022/03/17 05:18:43;;;;;;;67.43;31.33;;;;;;;-145.69;100.00;72763.69;5072879;28;20207;-75
2022/03/17 05:21:09;;;;;;;74.70;33.00;;;;;;;-145.69;100.00;72761.69;5072939;28;20579;-76
2022/03/17 05:23:46;;;;;;;66.33;29.37;;;;;;;-145.69;100.00;72767.69;5072523;28;20198;-76
2022/03/17 05:26:12;;;;;;;65.03;30.03;;;;;;;-145.69;100.00;72765.69;5072592;28;20199;-75
2022/03/17 05:28:38;;;;;;;71.67;31.50;;;;;;;-145.69;100.00;72767.69;5072885;28;20195;-75
2022/03/17 05:31:06;;;;;;;68.23;32.13;;;;;;;-145.69;100.00;72763.69;5072733;28;20202;-76
2022/03/17 05:33:33;;;;;;;70.83;32.77;;;;;;;-145.69;100.00;72761.69;5072618;28;20198;-75
2022/03/17 05:35:59;;;;;;;67.63;31.53;;;;;;;-145.69;100.00;72763.69;5072650;28;20660;-76
2022/03/17 05:38:31;;;;;;;68.23;31.93;;;;;;;-145.69;100.00;72767.69;5072499;28;20659;-75
2022/03/17 05:40:58;;;;;;;66.97;31.63;;;;;;;-145.69;100.00;72767.69;5072955;28;20282;-76
2022/03/17 05:43:24;;;;;;;69.77;31.53;;;;;;;-145.69;100.00;72775.63;5072582;28;20248;-75
2022/03/17 05:45:51;;;;;;;69.57;32.17;;;;;;;-145.69;100.00;72773.66;5072550;28;20205;-76
2022/03/17 05:48:19;;;;;;;71.67;32.63;;;;;;;-145.69;100.00;72779.63;5072660;28;20203;-76
2022/03/17 05:50:45;;;;;;;76.30;33.50;;;;;;;-145.69;100.00;72781.59;5072622;28;20202;-76
2022/03/17 05:53:12;;;;;;;76.07;32.63;;;;;;;-145.69;100.00;72781.59;5072185;28;20230;-76
2022/03/17 05:55:41;;;;;;;74.37;32.53;;;;;;;-145.69;100.00;72783.59;5072830;28;20203;-76
2022/03/17 05:58:14;;;;;;;66.53;30.30;;;;;;;-145.69;100.00;72781.59;5072879;28;20214;-76
2022/03/17 06:00:41;;;;;;;75.77;33.37;;;;;;;-145.69;100.00;72775.63;5072723;28;20199;-76
2022/03/17 06:03:07;;;;;;;70.03;32.83;;;;;;;-145.69;100.00;72775.63;5072439;28;20250;-76
2022/03/17 06:05:35;;;;;;;72.23;32.63;;;;;;;-145.69;100.00;72763.69;5072002;28;20203;-76
2022/03/17 06:08:03;;;;;;;71.83;32.53;;;;;;;-145.69;100.00;72757.72;5072749;28;20208;-76
2022/03/17 06:10:32;;;;;;;75.10;32.97;;;;;;;-145.69;100.00;72743.78;5072661;28;20230;-76
2022/03/17 06:13:00;;;;;;;66.87;31.67;;;;;;;-145.69;100.00;72727.88;5072347;28;20226;-75
2022/03/17 06:15:27;;;;;;;72.83;32.37;;;;;;;-145.69;100.00;72735.81;5072264;28;20230;-77
2022/03/17 06:17:55;;;;;;;69.77;31.40;;;;;;;-145.69;100.00;72737.81;5072439;28;20678;-76
2022/03/17 06:20:23;;;;;;;71.40;31.67;;;;;;;-145.69;100.00;72735.81;5074124;28;20711;-76
2022/03/17 06:22:53;;;;;;;65.33;29.77;;;;;;;-145.69;100.00;72731.84;5076364;28;20298;-76
2022/03/17 06:25:25;;;;;;;70.30;32.23;;;;;;;-145.69;100.00;72729.84;5075985;28;20199;-76
2022/03/17 06:27:53;;;;;;;67.53;32.43;;;;;;;-145.69;100.00;72719.91;5076170;28;20203;-77
2022/03/17 06:30:24;;;;;;;66.63;30.03;;;;;;;-145.69;100.00;72713.94;5075985;28;20199;-77
2022/03/17 06:32:52;;;;;;;64.73;31.57;;;;;;;-145.69;100.00;72711.94;5072110;28;20236;-76
2022/03/17 06:35:23;;;;;;;69.63;32.27;;;;;;;-145.69;100.00;72709.94;5076048;28;20203;-77
2022/03/17 06:37:56;;;;;;;66.00;31.30;;;;;;;-145.69;100.00;72700.00;5076015;28;20207;-77
2022/03/17 06:40:24;;;;;;;74.53;31.87;;;;;;;-145.69;100.00;72700.00;5076045;28;20206;-76
2022/03/17 06:42:52;;;;;;;63.23;29.87;;;;;;;-145.69;100.00;72696.00;5075884;28;20199;-77
2022/03/17 06:45:20;;;;;;;66.33;30.57;;;;;;;-145.69;100.00;72700.00;5075431;28;20198;-77
2022/03/17 06:47:49;;;;;;;69.17;32.60;;;;;;;-145.69;100.00;72696.00;5075676;28;20210;-76
2022/03/17 06:50:20;;;;;;;66.00;31.93;;;;;;;-145.69;100.00;72680.09;5075772;28;20203;-76
2022/03/17 06:52:46;;;;;;;64.80;29.40;;;;;;;-145.69;100.00;72688.06;5075534;28;20585;-76
2022/03/17 06:55:16;;;;;;;58.53;29.77;;;;;;;-145.69;100.00;72680.09;5075496;28;20199;-76
2022/03/17 06:57:43;;;;;;;56.33;27.20;;;;;;;-145.69;100.00;72680.09;5075109;28;20201;-76
2022/03/17 07:00:12;;;;;;;58.03;29.30;;;;;;;-145.69;100.00;72674.13;5075751;28;20199;-77
2022/03/17 07:02:38;;;;;;;61.30;28.53;;;;;;;-145.69;100.00;72684.06;5075614;28;20203;-76
2022/03/17 07:05:06;;;;;;;61.87;28.73;;;;;;;-145.69;100.00;72694.03;5075314;28;20199;-77
2022/03/17 07:07:33;;;;;;;67.63;36.33;;;;;;;-145.69;100.00;72690.03;5074171;28;20438;-76
2022/03/17 07:10:09;;;;;;;70.63;30.60;;;;;;;-145.69;100.00;72686.06;5075486;28;20221;-76
2022/03/17 07:12:37;;;;;;;59.03;27.47;;;;;;;-145.69;100.00;72690.03;5075280;28;20706;-76
2022/03/17 07:15:06;;;;;;;58.33;28.77;;;;;;;-145.69;100.00;72688.06;5074944;28;20245;-78
2022/03/17 07:17:39;;;;;;;60.57;29.10;;;;;;;-145.69;100.00;72696.00;5075275;28;20211;-78
2022/03/17 07:20:08;;;;;;;56.93;27.73;;;;;;;-145.69;100.00;72684.06;5075142;28;20203;-78
2022/03/17 07:22:34;;;;;;;59.93;27.67;;;;;;;-145.69;100.00;72680.09;5075267;28;20199;-78
2022/03/17 07:25:05;;;;;;;54.93;26.97;;;;;;;-145.69;100.00;72674.13;5074760;28;20268;-78
2022/03/17 07:27:33;;;;;;;53.63;27.57;;;;;;;-145.69;100.00;72670.13;5075235;28;20203;-78
2022/03/17 07:30:03;;;;;;;57.73;28.10;;;;;;;-145.69;100.00;72664.16;5074845;28;20195;-78
2022/03/17 07:32:32;;;;;;;51.10;26.67;;;;;;;-145.69;100.00;72650.22;5074193;28;20325;-78
2022/03/17 07:34:59;;;;;;;58.93;28.60;;;;;;;-145.69;100.00;72636.31;5074682;28;20194;-78
2022/03/17 07:37:25;;;;;;;57.53;27.30;;;;;;;-145.69;100.00;72642.28;5074692;28;20202;-79
2022/03/17 07:39:52;;;;;;;61.87;27.53;;;;;;;-145.69;100.00;72632.31;5075051;28;20291;-79
2022/03/17 07:42:21;;;;;;;53.80;25.53;;;;;;;-145.69;100.00;72636.31;5074651;28;20214;-79
2022/03/17 07:44:47;;;;;;;57.27;28.27;;;;;;;-145.69;100.00;72640.28;5074382;28;20226;-79
2022/03/17 07:47:15;;;;;;;61.43;29.07;;;;;;;-145.69;100.00;72636.31;5074685;28;20257;-79
2022/03/17 07:49:42;;;;;;;62.20;30.63;;;;;;;-145.69;100.00;72636.31;5074386;28;20206;-79
2022/03/17 07:52:17;;;;;;;54.90;27.67;;;;;;;-145.69;100.00;72614.41;5074292;28;20280;-78
2022/03/17 07:54:45;;;;;;;50.13;25.47;;;;;;;-145.69;100.00;72614.41;5074390;28;20418;-79
2022/03/17 07:57:12;;;;;;;53.00;25.53;;;;;;;-145.69;100.00;72608.44;5074145;28;20199;-78
2022/03/17 07:59:40;;;;;;;49.47;26.23;;;;;;;-145.69;100.00;72614.41;5074138;28;20725;-79
2022/03/17 08:02:07;;;;;;;52.93;26.70;;;;;;;-145.69;100.00;72620.38;5074562;28;20299;-79
2022/03/17 08:04:35;;;;;;;53.73;26.70;;;;;;;-145.69;100.00;72628.34;5074005;28;20214;-79
2022/03/17 08:07:03;;;;;;;57.37;26.23;;;;;;;-145.69;100.00;72630.31;5074221;28;20198;-79
2022/03/17 08:09:30;;;;;;;51.57;25.60;;;;;;;-145.69;100.00;72632.31;5074179;28;20244;-79
2022/03/17 08:11:59;;;;;;;49.60;24.53;;;;;;;-145.69;100.00;72604.44;5074063;28;20195;-79
2022/03/17 08:14:31;;;;;;;48.17;25.13;;;;;;;-145.69;100.00;72580.56;5073808;28;20653;-79
2022/03/17 08:16:58;;;;;;;48.50;24.73;;;;;;;-145.69;100.00;72572.59;5073942;28;20225;-79
2022/03/17 08:19:27;;;;;;;50.63;25.00;;;;;;;-145.69;100.00;72568.63;5073728;28;20203;-79
2022/03/17 08:21:58;;;;;;;45.30;24.57;;;;;;;-145.69;100.00;72540.75;5073981;28;20296;-78
2022/03/17 08:24:25;;;;;;;46.23;23.30;;;;;;;-145.69;100.00;72546.72;5073906;28;20205;-79
2022/03/17 08:26:56;;;;;;;49.40;24.77;;;;;;;-145.69;100.00;72540.75;5073945;28;20202;-78
2022/03/17 08:29:22;;;;;;;47.57;24.07;;;;;;;-145.69;100.00;72538.78;5073790;28;20249;-79
2022/03/17 08:31:49;;;;;;;48.40;24.37;;;;;;;-145.69;100.00;72556.69;5073798;28;20226;-78
2022/03/17 08:34:21;;;;;;;46.23;22.07;;;;;;;-145.69;100.00;72534.78;5073194;28;20191;-78
2022/03/17 08:36:53;;;;;;;44.30;22.63;;;;;;;-145.69;100.00;72500.94;5060017;28;20665;-79
2022/03/17 08:39:22;;;;;;;45.20;22.17;;;;;;;-145.69;100.00;72496.97;5053780;28;20214;-79
2022/03/17 08:41:51;;;;;;;37.13;20.17;;;;;;;-145.69;100.00;72493.00;5053386;28;20210;-78
2022/03/17 08:44:19;;;;;;;36.67;18.87;;;;;;;-145.69;100.00;72465.13;5057243;28;20542;-78
2022/03/17 08:49:30;;;;;;;38.93;19.90;;;;;;;-145.69;100.00;72421.34;5073490;28;20213;-78
2022/03/17 08:52:01;;;;;;;35.73;18.67;;;;;;;-145.69;100.00;72401.44;5073381;28;20206;-79
2022/03/17 08:54:44;;;;;;;33.23;17.80;;;;;;;-145.69;100.00;72377.53;5073103;28;20653;-78
2022/03/17 08:57:11;;;;;;;33.90;19.75;;;;;;;-145.69;100.00;72349.69;5072042;28;20450;-78
2022/03/17 08:59:46;;;;;;;31.63;17.73;;;;;;;-145.69;100.00;72349.69;5073432;28;20209;-78
2022/03/17 09:02:15;;;;;;;30.03;16.73;;;;;;;-145.69;100.00;72337.75;5073358;28;20198;-77
2022/03/17 09:04:45;;;;;;;32.60;18.27;;;;;;;-145.69;100.00;72353.66;5073029;28;20199;-77
2022/03/17 09:07:12;;;;;;;35.43;18.60;;;;;;;-145.69;100.00;72351.66;5072359;28;20664;-78
2022/03/17 09:09:41;;;;;;;33.43;17.80;;;;;;;-145.69;100.00;72323.81;5073165;28;20244;-78
2022/03/17 09:12:10;;;;;;;30.23;16.17;;;;;;;-145.69;100.00;72289.97;5072948;28;20198;-79
2022/03/17 09:14:47;;;;;;;30.07;16.50;;;;;;;-145.69;100.00;72280.03;5072844;28;20320;-78
2022/03/17 09:17:14;;;;;;;35.93;18.40;;;;;;;-145.69;100.00;72289.97;5073003;28;20198;-77
2022/03/17 09:19:43;;;;;;;30.97;16.90;;;;;;;-145.69;100.00;72289.97;5072699;28;20199;-77
2022/03/17 09:22:09;;;;;;;33.40;16.50;;;;;;;-145.69;100.00;72278.03;5073266;28;20199;-78
2022/03/17 09:24:37;;;;;;;37.87;16.70;;;;;;;-145.69;100.00;72280.03;5073190;28;20199;-77
2022/03/17 09:27:06;;;;;;;29.83;15.63;;;;;;;-145.69;100.00;72266.09;5072999;28;20209;-78
2022/03/17 09:29:33;;;;;;;29.63;15.80;;;;;;;-145.69;100.00;72232.25;5072673;28;20717;-77
2022/03/17 09:32:00;;;;;;;28.63;14.63;;;;;;;-145.69;97.34;72150.66;5072967;28;20199;-78
2022/03/17 09:34:26;;;;;;;28.98;15.00;;;;;;;-145.69;94.70;72110.84;5072250;28;20466;-78
2022/03/17 09:36:53;;;;;;;30.43;14.80;;;;;;;-145.69;94.42;72118.81;5072345;28;20199;-77
2022/03/17 09:42:05;;;;;;;24.73;12.60;;;;;;;-145.69;91.94;72116.81;5072924;28;20553;-77
2022/03/17 09:44:34;;;;;;;23.50;12.20;;;;;;;-145.69;91.51;72047.16;5072307;28;20199;-77
2022/03/17 09:47:04;;;;;;;27.52;14.00;;;;;;;-145.69;89.14;72047.16;5072422;28;20206;-77
2022/03/17 09:49:33;;;;;;;31.77;13.13;;;;;;;-145.69;88.11;72041.19;5072629;28;20245;-77
2022/03/17 09:52:04;;;;;;;26.80;13.50;;;;;;;-145.69;86.44;71987.47;5072938;28;20209;-77
2022/03/17 09:54:30;;;;;;;33.72;14.80;;;;;;;-145.69;88.50;72015.31;5072769;28;20229;-78
2022/03/17 09:56:57;;;;;;;36.77;14.70;;;;;;;-145.69;86.78;71991.44;5076537;28;20202;-78
2022/03/17 09:59:25;;;;;;;28.10;14.07;;;;;;;-145.69;86.41;71969.53;5076757;28;20206;-78
2022/03/17 10:01:52;;;;;;;30.23;13.15;;;;;;;-145.69;83.80;71943.69;5076690;28;20199;-77
2022/03/17 10:04:19;;;;;;;32.88;14.98;;;;;;;-145.69;87.51;71953.63;5076217;28;20201;-79
2022/03/17 10:06:47;;;;;;;32.30;13.10;;;;;;;-145.69;86.50;71951.63;5076606;28;20688;-79
2022/03/17 10:09:14;;;;;;;25.98;13.20;;;;;;;-145.69;85.85;71973.53;5076163;28;20248;-79
2022/03/17 10:11:41;;;;;;;29.70;14.10;;;;;;;-145.69;85.51;71963.56;5076333;28;20289;-79
2022/03/17 10:14:10;;;;;;;30.83;12.68;;;;;;;-145.69;87.07;71997.41;5076035;28;20234;-79
2022/03/17 10:16:38;;;;;;;27.20;11.82;;;;;;;-145.69;84.06;71943.69;5076146;28;20198;-79
2022/03/17 10:19:06;;;;;;;35.63;13.25;;;;;;;-145.69;81.15;71899.88;5076585;28;20790;-79
2022/03/17 10:21:33;;;;;;;28.88;13.82;;;;;;;-145.69;84.31;71969.53;5076308;28;20209;-79
2022/03/17 10:24:02;;;;;;;32.72;13.23;;;;;;;-145.69;84.06;71959.59;5075767;28;20209;-79
2022/03/17 10:26:52;;;;;;;27.05;13.30;;;;;;;-145.69;85.71;71987.47;5076414;28;20289;-79
2022/03/17 10:29:21;;;;;;;28.13;13.75;;;;;;;-145.69;84.41;71945.66;5073546;28;20649;-79
2022/03/17 10:31:58;;;;;;;28.55;13.38;;;;;;;-145.69;82.15;71929.75;5076015;28;20202;-79
2022/03/17 10:34:28;;;;;;;27.88;12.00;;;;;;;-145.69;82.51;71903.88;5075526;28;20308;-79
2022/03/17 10:37:08;;;;;;;27.05;12.55;;;;;;;-145.69;83.95;71937.69;5076028;28;20230;-79
2022/03/17 10:39:45;;;;;;;33.20;14.07;;;;;;;-145.69;82.44;71919.78;5076195;28;20561;-79
2022/03/17 10:42:14;;;;;;;40.70;18.25;;;;;;;-145.69;83.23;71893.91;5072965;28;20191;-79
2022/03/17 10:44:47;;;;;;;85.75;33.80;;;;;;;-145.69;81.52;71883.97;5060303;28;20203;-79
2022/03/17 10:47:22;;;;;;;38.35;14.00;;;;;;;-145.69;83.69;71935.72;5075844;28;20431;-79
2022/03/17 10:50:04;;;;;;;29.80;14.23;;;;;;;-145.69;84.78;71997.41;5075913;28;20202;-79
2022/03/17 10:52:50;;;;;;;22.15;9.68;;;;;;;-145.69;83.65;71979.50;5075715;28;20198;-79
2022/03/17 10:55:21;;;;;;;22.55;11.18;;;;;;;-145.69;84.77;72049.16;5075206;28;20197;-78
2022/03/17 10:57:49;;;;;;;24.10;10.05;;;;;;;-145.69;85.23;72021.28;5075786;28;20203;-79
2022/03/17 11:00:22;;;;;;;20.58;10.35;;;;;;;-145.69;85.12;72029.25;5075658;28;20198;-79
2022/03/17 11:02:53;;;;;;;23.05;10.48;;;;;;;-145.69;84.00;72031.25;5075405;28;20226;-79
2022/03/17 11:05:27;;;;;;;23.33;10.52;;;;;;;-145.69;87.07;72067.06;5075192;28;20195;-79
2022/03/17 11:07:57;;;;;;;21.23;10.80;;;;;;;-145.69;86.51;72067.06;5074328;28;20268;-79
2022/03/17 11:10:25;;;;;;;24.20;10.95;;;;;;;-145.69;89.06;72053.13;5075076;28;20754;-79
2022/03/17 11:12:52;;;;;;;31.52;11.60;;;;;;;-145.69;86.46;72033.22;5075569;28;20195;-79